sensor_id;sensor_type;location;lat;lon;timestamp;pressure;altitude;pressure_sealevel;temperature;humidity
14612;BME280;7392;52.078;11.650;2024-03-23T00:53:56;100119.25;;;7.84;100.00
14612;BME280;7392;52.078;11.650;2024-03-23T00:56:24;100119.25;;;7.84;100.00
14612;BME280;7392;52.078;11.650;2024-03-23T00:58:50;100111.31;;;7.84;100.00
14612;BME280;7392;52.078;11.650;2024-03-23T01:01:16;100110.44;;;7.82;100.00
14612;BME280;7392;52.078;11.650;2024-03-23T01:03:42;100110.44;;;7.82;100.00
14612;BME280;7392;52.078;11.650;2024-03-23T01:06:10;100109.53;;;7.82;100.00
14612;BME280;7392;52.078;11.650;2024-03-23T01:08:36;100105.16;;;7.81;100.00
14612;BME280;7392;52.078;11.650;2024-03-23T01:11:08;100093.69;;;7.80;100.00
14612;BME280;7392;52.078;11.650;2024-03-23T01:13:33;100103.38;;;7.80;100.00
14612;BME280;7392;52.078;11.650;2024-03-23T01:16:01;100093.72;;;7.77;100.00
14612;BME280;7392;52.078;11.650;2024-03-23T01:18:27;100089.28;;;7.75;100.00
14612;BME280;7392;52.078;11.650;2024-03-23T01:20:54;100084.88;;;7.75;100.00
14612;BME280;7392;52.078;11.650;2024-03-23T01:23:20;100076.06;;;7.75;100.00
14612;BME280;7392;52.078;11.650;2024-03-23T01:25:52;100079.59;;;7.75;100.00
14612;BME280;7392;52.078;11.650;2024-03-23T01:28:20;100072.56;;;7.73;100.00
14612;BME280;7392;52.078;11.650;2024-03-23T01:30:47;100069.03;;;7.72;100.00
14612;BME280;7392;52.078;11.650;2024-03-23T01:33:13;100068.13;;;7.73;100.00
14612;BME280;7392;52.078;11.650;2024-03-23T01:35:40;100066.41;;;7.72;100.00
14612;BME280;7392;52.078;11.650;2024-03-23T01:38:06;100065.50;;;7.72;100.00
14612;BME280;7392;52.078;11.650;2024-03-23T01:40:33;100054.91;;;7.72;100.00
14612;BME280;7392;52.078;11.650;2024-03-23T01:43:04;100058.47;;;7.71;100.00
14612;BME280;7392;52.078;11.650;2024-03-23T01:45:32;100047.91;;;7.71;100.00
14612;BME280;7392;52.078;11.650;2024-03-23T01:47:59;100050.53;;;7.69;100.00
14612;BME280;7392;52.078;11.650;2024-03-23T01:50:27;100056.69;;;7.68;100.00
14612;BME280;7392;52.078;11.650;2024-03-23T01:52:53;100054.06;;;7.68;100.00
14612;BME280;7392;52.078;11.650;2024-03-23T01:55:20;100050.53;;;7.66;100.00
14612;BME280;7392;52.078;11.650;2024-03-23T01:57:46;100054.94;;;7.67;100.00
14612;BME280;7392;52.078;11.650;2024-03-23T02:00:14;100047.03;;;7.65;100.00
14612;BME280;7392;52.078;11.650;2024-03-23T02:02:45;100036.44;;;7.65;100.00
14612;BME280;7392;52.078;11.650;2024-03-23T02:05:12;100033.81;;;7.64;100.00
14612;BME280;7392;52.078;11.650;2024-03-23T02:07:39;100033.81;;;7.62;100.00
14612;BME280;7392;52.078;11.650;2024-03-23T02:10:07;100028.50;;;7.61;100.00
14612;BME280;7392;52.078;11.650;2024-03-23T02:12:33;100024.09;;;7.58;100.00
14612;BME280;7392;52.078;11.650;2024-03-23T02:15:00;100032.06;;;7.55;100.00
14612;BME280;7392;52.078;11.650;2024-03-23T02:17:26;100031.16;;;7.53;100.00
14612;BME280;7392;52.078;11.650;2024-03-23T02:19:54;100038.22;;;7.51;100.00
14612;BME280;7392;52.078;11.650;2024-03-23T02:22:21;100031.19;;;7.50;100.00
14612;BME280;7392;52.078;11.650;2024-03-23T02:24:49;100022.38;;;7.46;100.00
14612;BME280;7392;52.078;11.650;2024-03-23T02:27:15;100018.84;;;7.38;100.00
14612;BME280;7392;52.078;11.650;2024-03-23T02:29:42;100016.22;;;7.32;100.00
14612;BME280;7392;52.078;11.650;2024-03-23T02:32:07;100010.03;;;7.27;100.00
14612;BME280;7392;52.078;11.650;2024-03-23T02:34:35;100003.88;;;7.19;100.00
14612;BME280;7392;52.078;11.650;2024-03-23T02:37:01;100003.00;;;7.14;100.00
14612;BME280;7392;52.078;11.650;2024-03-23T02:39:28;100009.16;;;7.09;100.00
14612;BME280;7392;52.078;11.650;2024-03-23T02:41:55;100011.81;;;7.06;100.00
14612;BME280;7392;52.078;11.650;2024-03-23T02:44:22;99999.50;;;7.04;100.00
14612;BME280;7392;52.078;11.650;2024-03-23T02:46:48;100002.13;;;7.01;100.00
14612;BME280;7392;52.078;11.650;2024-03-23T02:49:15;100010.03;;;6.99;100.00
14612;BME280;7392;52.078;11.650;2024-03-23T02:51:41;100009.19;;;6.99;100.00
14612;BME280;7392;52.078;11.650;2024-03-23T02:54:10;99997.69;;;6.95;100.00
14612;BME280;7392;52.078;11.650;2024-03-23T02:56:36;99998.59;;;6.92;100.00
14612;BME280;7392;52.078;11.650;2024-03-23T02:59:04;100003.00;;;6.89;100.00
14612;BME280;7392;52.078;11.650;2024-03-23T03:01:30;100003.84;;;6.85;100.00
14612;BME280;7392;52.078;11.650;2024-03-23T03:03:57;100005.59;;;6.80;100.00
14612;BME280;7392;52.078;11.650;2024-03-23T03:06:23;99989.78;;;6.75;100.00
14612;BME280;7392;52.078;11.650;2024-03-23T03:08:50;99982.72;;;6.71;100.00
14612;BME280;7392;52.078;11.650;2024-03-23T03:11:16;99975.69;;;6.65;100.00
14612;BME280;7392;52.078;11.650;2024-03-23T03:13:43;99958.09;;;6.60;100.00
14612;BME280;7392;52.078;11.650;2024-03-23T03:16:11;99965.09;;;6.59;100.00
14612;BME280;7392;52.078;11.650;2024-03-23T03:18:38;99955.44;;;6.57;100.00
14612;BME280;7392;52.078;11.650;2024-03-23T03:21:06;99966.00;;;6.55;100.00
14612;BME280;7392;52.078;11.650;2024-03-23T03:23:36;99984.44;;;6.52;100.00
14612;BME280;7392;52.078;11.650;2024-03-23T03:26:03;99987.97;;;6.49;100.00
14612;BME280;7392;52.078;11.650;2024-03-23T03:28:31;99990.63;;;6.49;100.00
14612;BME280;7392;52.078;11.650;2024-03-23T03:30:57;99997.63;;;6.49;100.00
14612;BME280;7392;52.078;11.650;2024-03-23T03:33:27;99986.22;;;6.48;100.00
14612;BME280;7392;52.078;11.650;2024-03-23T03:35:53;99987.06;;;6.47;100.00
14612;BME280;7392;52.078;11.650;2024-03-23T03:38:20;99981.78;;;6.47;100.00
14612;BME280;7392;52.078;11.650;2024-03-23T03:40:46;99975.63;;;6.45;100.00
14612;BME280;7392;52.078;11.650;2024-03-23T03:43:13;99955.44;;;6.44;100.00
14612;BME280;7392;52.078;11.650;2024-03-23T03:45:40;99947.50;;;6.43;100.00
14612;BME280;7392;52.078;11.650;2024-03-23T03:48:07;99956.28;;;6.42;100.00
14612;BME280;7392;52.078;11.650;2024-03-23T03:50:34;99958.06;;;6.41;100.00
14612;BME280;7392;52.078;11.650;2024-03-23T03:53:01;99958.06;;;6.40;100.00
14612;BME280;7392;52.078;11.650;2024-03-23T03:55:27;99956.28;;;6.39;100.00
14612;BME280;7392;52.078;11.650;2024-03-23T03:57:54;99936.06;;;6.36;100.00
14612;BME280;7392;52.078;11.650;2024-03-23T04:00:20;99942.19;;;6.35;100.00
14612;BME280;7392;52.078;11.650;2024-03-23T04:02:47;99937.81;;;6.34;100.00
14612;BME280;7392;52.078;11.650;2024-03-23T04:05:13;99916.72;;;6.32;100.00
14612;BME280;7392;52.078;11.650;2024-03-23T04:07:42;99921.97;;;6.31;100.00
14612;BME280;7392;52.078;11.650;2024-03-23T04:10:08;99917.56;;;6.28;100.00
14612;BME280;7392;52.078;11.650;2024-03-23T04:12:35;99915.81;;;6.26;100.00
14612;BME280;7392;52.078;11.650;2024-03-23T04:15:01;99897.34;;;6.24;100.00
14612;BME280;7392;52.078;11.650;2024-03-23T04:17:30;99891.22;;;6.24;100.00
14612;BME280;7392;52.078;11.650;2024-03-23T04:19:57;99882.38;;;6.22;100.00
14612;BME280;7392;52.078;11.650;2024-03-23T04:22:24;99878.88;;;6.21;100.00
14612;BME280;7392;52.078;11.650;2024-03-23T04:24:54;99888.56;;;6.21;100.00
14612;BME280;7392;52.078;11.650;2024-03-23T04:27:21;99888.56;;;6.19;100.00
14612;BME280;7392;52.078;11.650;2024-03-23T04:29:47;99880.63;;;6.16;100.00
14612;BME280;7392;52.078;11.650;2024-03-23T04:32:15;99880.63;;;6.14;100.00
14612;BME280;7392;52.078;11.650;2024-03-23T04:34:41;99877.13;;;6.14;100.00
14612;BME280;7392;52.078;11.650;2024-03-23T04:37:09;99878.88;;;6.13;100.00
14612;BME280;7392;52.078;11.650;2024-03-23T04:39:36;99870.97;;;6.12;100.00
14612;BME280;7392;52.078;11.650;2024-03-23T04:42:05;99863.06;;;6.10;100.00
14612;BME280;7392;52.078;11.650;2024-03-23T04:44:33;99866.56;;;6.09;100.00
14612;BME280;7392;52.078;11.650;2024-03-23T04:47:00;99866.53;;;6.06;100.00
14612;BME280;7392;52.078;11.650;2024-03-23T04:49:27;99856.00;;;6.06;100.00
14612;BME280;7392;52.078;11.650;2024-03-23T04:51:53;99864.78;;;6.04;100.00
14612;BME280;7392;52.078;11.650;2024-03-23T04:54:20;99863.91;;;6.02;100.00
14612;BME280;7392;52.078;11.650;2024-03-23T04:56:48;99848.97;;;5.99;100.00
14612;BME280;7392;52.078;11.650;2024-03-23T04:59:16;99852.50;;;5.98;100.00
14612;BME280;7392;52.078;11.650;2024-03-23T05:01:42;99848.94;;;5.96;100.00
14612;BME280;7392;52.078;11.650;2024-03-23T05:04:09;99845.41;;;5.95;100.00
14612;BME280;7392;52.078;11.650;2024-03-23T05:06:35;99843.66;;;5.94;100.00
14612;BME280;7392;52.078;11.650;2024-03-23T05:09:02;99838.38;;;5.91;100.00
14612;BME280;7392;52.078;11.650;2024-03-23T05:11:31;99847.13;;;5.87;100.00
14612;BME280;7392;52.078;11.650;2024-03-23T05:13:58;99848.03;;;5.85;100.00
14612;BME280;7392;52.078;11.650;2024-03-23T05:16:26;99844.50;;;5.83;100.00
14612;BME280;7392;52.078;11.650;2024-03-23T05:18:53;99834.81;;;5.80;100.00
14612;BME280;7392;52.078;11.650;2024-03-23T05:21:20;99840.97;;;5.77;100.00
14612;BME280;7392;52.078;11.650;2024-03-23T05:23:47;99831.28;;;5.75;100.00
14612;BME280;7392;52.078;11.650;2024-03-23T05:26:13;99837.44;;;5.72;100.00
14612;BME280;7392;52.078;11.650;2024-03-23T05:28:40;99834.81;;;5.71;100.00
14612;BME280;7392;52.078;11.650;2024-03-23T05:31:06;99830.38;;;5.68;100.00
14612;BME280;7392;52.078;11.650;2024-03-23T05:33:36;99832.16;;;5.66;100.00
14612;BME280;7392;52.078;11.650;2024-03-23T05:36:04;99830.38;;;5.65;100.00
14612;BME280;7392;52.078;11.650;2024-03-23T05:38:31;99826.00;;;5.64;100.00
14612;BME280;7392;52.078;11.650;2024-03-23T05:40:59;99825.97;;;5.61;100.00
14612;BME280;7392;52.078;11.650;2024-03-23T05:43:26;99827.75;;;5.59;100.00
14612;BME280;7392;52.078;11.650;2024-03-23T05:45:54;99820.69;;;5.56;100.00
14612;BME280;7392;52.078;11.650;2024-03-23T05:48:21;99814.53;;;5.53;100.00
14612;BME280;7392;52.078;11.650;2024-03-23T05:50:49;99823.31;;;5.53;100.00
14612;BME280;7392;52.078;11.650;2024-03-23T05:53:17;99818.06;;;5.50;100.00
14612;BME280;7392;52.078;11.650;2024-03-23T05:55:43;99811.00;;;5.49;100.00
14612;BME280;7392;52.078;11.650;2024-03-23T05:58:10;99805.75;;;5.49;100.00
14612;BME280;7392;52.078;11.650;2024-03-23T06:00:36;99809.25;;;5.48;100.00
14612;BME280;7392;52.078;11.650;2024-03-23T06:03:03;99808.34;;;5.46;100.00
14612;BME280;7392;52.078;11.650;2024-03-23T06:05:30;99815.38;;;5.44;100.00
14612;BME280;7392;52.078;11.650;2024-03-23T06:07:58;99813.63;;;5.44;100.00
14612;BME280;7392;52.078;11.650;2024-03-23T06:10:24;99797.81;;;5.43;100.00
14612;BME280;7392;52.078;11.650;2024-03-23T06:12:51;99806.59;;;5.42;100.00
14612;BME280;7392;52.078;11.650;2024-03-23T06:15:18;99803.97;;;5.42;100.00
14612;BME280;7392;52.078;11.650;2024-03-23T06:17:45;99807.47;;;5.42;100.00
14612;BME280;7392;52.078;11.650;2024-03-23T06:20:12;99807.50;;;5.46;100.00
14612;BME280;7392;52.078;11.650;2024-03-23T06:22:40;99810.13;;;5.46;100.00
14612;BME280;7392;52.078;11.650;2024-03-23T06:25:08;99797.81;;;5.46;100.00
14612;BME280;7392;52.078;11.650;2024-03-23T06:27:35;99791.69;;;5.47;100.00
14612;BME280;7392;52.078;11.650;2024-03-23T06:30:01;99801.34;;;5.48;100.00
14612;BME280;7392;52.078;11.650;2024-03-23T06:32:28;99801.34;;;5.50;100.00
14612;BME280;7392;52.078;11.650;2024-03-23T06:34:55;99796.97;;;5.49;100.00
14612;BME280;7392;52.078;11.650;2024-03-23T06:37:22;99810.13;;;5.49;100.00
14612;BME280;7392;52.078;11.650;2024-03-23T06:39:48;99809.25;;;5.48;100.00
14612;BME280;7392;52.078;11.650;2024-03-23T06:42:16;99818.91;;;5.48;100.00
14612;BME280;7392;52.078;11.650;2024-03-23T06:44:43;99813.63;;;5.48;100.00
14612;BME280;7392;52.078;11.650;2024-03-23T06:47:10;99818.91;;;5.49;100.00
14612;BME280;7392;52.078;11.650;2024-03-23T06:49:36;99815.41;;;5.49;100.00
14612;BME280;7392;52.078;11.650;2024-03-23T06:52:03;99825.97;;;5.50;100.00
14612;BME280;7392;52.078;11.650;2024-03-23T06:54:29;99816.28;;;5.49;100.00
14612;BME280;7392;52.078;11.650;2024-03-23T06:56:56;99818.91;;;5.49;100.00
14612;BME280;7392;52.078;11.650;2024-03-23T06:59:23;99829.44;;;5.49;100.00
14612;BME280;7392;52.078;11.650;2024-03-23T07:01:50;99820.69;;;5.52;100.00
14612;BME280;7392;52.078;11.650;2024-03-23T07:04:16;99823.34;;;5.52;100.00
14612;BME280;7392;52.078;11.650;2024-03-23T07:06:44;99824.19;;;5.52;100.00
14612;BME280;7392;52.078;11.650;2024-03-23T07:09:10;99827.72;;;5.54;100.00
14612;BME280;7392;52.078;11.650;2024-03-23T07:11:37;99825.94;;;5.53;100.00
14612;BME280;7392;52.078;11.650;2024-03-23T07:14:03;99824.22;;;5.54;100.00
14612;BME280;7392;52.078;11.650;2024-03-23T07:16:32;99825.94;;;5.55;100.00
14612;BME280;7392;52.078;11.650;2024-03-23T07:18:57;99823.31;;;5.55;100.00
14612;BME280;7392;52.078;11.650;2024-03-23T07:21:25;99818.94;;;5.55;100.00
14612;BME280;7392;52.078;11.650;2024-03-23T07:23:51;99827.72;;;5.56;100.00
14612;BME280;7392;52.078;11.650;2024-03-23T07:26:18;99822.47;;;5.59;100.00
14612;BME280;7392;52.078;11.650;2024-03-23T07:28:44;99816.31;;;5.58;100.00
14612;BME280;7392;52.078;11.650;2024-03-23T07:31:12;99809.28;;;5.56;100.00
14612;BME280;7392;52.078;11.650;2024-03-23T07:33:44;99818.97;;;5.57;100.00
14612;BME280;7392;52.078;11.650;2024-03-23T07:36:11;99819.81;;;5.56;100.00
14612;BME280;7392;52.078;11.650;2024-03-23T07:38:40;99817.19;;;5.56;100.00
14612;BME280;7392;52.078;11.650;2024-03-23T07:41:09;99814.53;;;5.54;100.00
14612;BME280;7392;52.078;11.650;2024-03-23T07:43:35;99823.31;;;5.55;100.00
14612;BME280;7392;52.078;11.650;2024-03-23T07:46:03;99811.91;;;5.56;100.00
14612;BME280;7392;52.078;11.650;2024-03-23T07:48:30;99811.94;;;5.57;100.00
14612;BME280;7392;52.078;11.650;2024-03-23T07:51:02;99812.78;;;5.58;100.00
14612;BME280;7392;52.078;11.650;2024-03-23T07:53:29;99810.16;;;5.52;100.00
14612;BME280;7392;52.078;11.650;2024-03-23T07:55:57;99813.63;;;5.48;100.00
14612;BME280;7392;52.078;11.650;2024-03-23T07:58:24;99811.88;;;5.43;100.00
14612;BME280;7392;52.078;11.650;2024-03-23T08:00:51;99805.72;;;5.41;100.00
14612;BME280;7392;52.078;11.650;2024-03-23T08:03:17;99803.94;;;5.39;100.00
14612;BME280;7392;52.078;11.650;2024-03-23T08:05:43;99812.72;;;5.36;100.00
14612;BME280;7392;52.078;11.650;2024-03-23T08:08:11;99818.84;;;5.35;100.00
14612;BME280;7392;52.078;11.650;2024-03-23T08:10:47;99818.84;;;5.34;100.00
14612;BME280;7392;52.078;11.650;2024-03-23T08:13:13;99815.34;;;5.32;100.00
14612;BME280;7392;52.078;11.650;2024-03-23T08:15:41;99810.06;;;5.29;100.00
14612;BME280;7392;52.078;11.650;2024-03-23T08:18:08;99804.78;;;5.27;100.00
14612;BME280;7392;52.078;11.650;2024-03-23T08:20:36;99803.00;;;5.28;100.00
14612;BME280;7392;52.078;11.650;2024-03-23T08:23:02;99806.53;;;5.25;100.00
14612;BME280;7392;52.078;11.650;2024-03-23T08:25:32;99815.28;;;5.25;100.00
14612;BME280;7392;52.078;11.650;2024-03-23T08:28:00;99817.91;;;5.24;100.00
14612;BME280;7392;52.078;11.650;2024-03-23T08:30:28;99822.28;;;5.20;100.00
14612;BME280;7392;52.078;11.650;2024-03-23T08:32:54;99825.81;;;5.19;100.00
14612;BME280;7392;52.078;11.650;2024-03-23T08:35:23;99828.44;;;5.19;100.00
14612;BME280;7392;52.078;11.650;2024-03-23T08:37:50;99831.06;;;5.16;100.00
14612;BME280;7392;52.078;11.650;2024-03-23T08:40:18;99832.81;;;5.17;100.00
14612;BME280;7392;52.078;11.650;2024-03-23T08:42:47;99838.97;;;5.18;100.00
14612;BME280;7392;52.078;11.650;2024-03-23T08:45:16;99842.47;;;5.18;100.00
14612;BME280;7392;52.078;11.650;2024-03-23T08:47:42;99833.69;;;5.18;100.00
14612;BME280;7392;52.078;11.650;2024-03-23T08:50:10;99842.47;;;5.20;100.00
14612;BME280;7392;52.078;11.650;2024-03-23T08:52:38;99852.13;;;5.21;100.00
14612;BME280;7392;52.078;11.650;2024-03-23T08:55:08;99857.41;;;5.22;100.00
14612;BME280;7392;52.078;11.650;2024-03-23T08:57:36;99853.91;;;5.22;100.00
14612;BME280;7392;52.078;11.650;2024-03-23T09:00:10;99860.03;;;5.19;100.00
14612;BME280;7392;52.078;11.650;2024-03-23T09:02:37;99867.06;;;5.22;100.00
14612;BME280;7392;52.078;11.650;2024-03-23T09:05:04;99860.91;;;5.20;100.00
14612;BME280;7392;52.078;11.650;2024-03-23T09:07:34;99858.28;;;5.21;100.00
14612;BME280;7392;52.078;11.650;2024-03-23T09:10:03;99867.06;;;5.22;100.00
14612;BME280;7392;52.078;11.650;2024-03-23T09:12:31;99860.94;;;5.28;100.00
14612;BME280;7392;52.078;11.650;2024-03-23T09:14:59;99859.22;;;5.28;100.00
14612;BME280;7392;52.078;11.650;2024-03-23T09:17:28;99860.09;;;5.30;100.00
14612;BME280;7392;52.078;11.650;2024-03-23T09:19:57;99858.34;;;5.32;100.00
14612;BME280;7392;52.078;11.650;2024-03-23T09:22:23;99863.63;;;5.37;100.00
14612;BME280;7392;52.078;11.650;2024-03-23T09:25:01;99861.03;;;5.41;100.00
14612;BME280;7392;52.078;11.650;2024-03-23T09:27:47;99874.22;;;5.48;100.00
14612;BME280;7392;52.078;11.650;2024-03-23T09:30:15;99876.00;;;5.50;100.00
14612;BME280;7392;52.078;11.650;2024-03-23T09:32:46;99880.38;;;5.53;100.00
14612;BME280;7392;52.078;11.650;2024-03-23T09:35:15;99870.72;;;5.53;100.00
14612;BME280;7392;52.078;11.650;2024-03-23T09:37:42;99874.28;;;5.55;100.00
14612;BME280;7392;52.078;11.650;2024-03-23T09:40:11;99877.78;;;5.56;100.00
14612;BME280;7392;52.078;11.650;2024-03-23T09:42:37;99874.25;;;5.58;100.00
14612;BME280;7392;52.078;11.650;2024-03-23T09:45:16;99869.91;;;5.60;100.00
14612;BME280;7392;52.078;11.650;2024-03-23T09:47:45;99880.44;;;5.60;100.00
14612;BME280;7392;52.078;11.650;2024-03-23T09:50:13;99882.19;;;5.63;100.00
14612;BME280;7392;52.078;11.650;2024-03-23T09:52:39;99883.97;;;5.66;100.00
14612;BME280;7392;52.078;11.650;2024-03-23T09:55:08;99883.97;;;5.70;100.00
14612;BME280;7392;52.078;11.650;2024-03-23T09:57:34;99879.59;;;5.72;100.00
14612;BME280;7392;52.078;11.650;2024-03-23T10:00:01;99883.09;;;5.71;100.00
14612;BME280;7392;52.078;11.650;2024-03-23T10:02:27;99876.06;;;5.72;100.00
14612;BME280;7392;52.078;11.650;2024-03-23T10:04:56;99872.56;;;5.73;100.00
14612;BME280;7392;52.078;11.650;2024-03-23T10:07:23;99877.84;;;5.73;100.00
14612;BME280;7392;52.078;11.650;2024-03-23T10:09:50;99880.47;;;5.73;100.00
14612;BME280;7392;52.078;11.650;2024-03-23T10:12:18;99884.84;;;5.74;100.00
14612;BME280;7392;52.078;11.650;2024-03-23T10:14:45;99891.03;;;5.76;100.00
14612;BME280;7392;52.078;11.650;2024-03-23T10:17:13;99899.81;;;5.78;100.00
14612;BME280;7392;52.078;11.650;2024-03-23T10:19:41;99904.22;;;5.77;100.00
14612;BME280;7392;52.078;11.650;2024-03-23T10:22:10;99916.50;;;5.78;100.00
14612;BME280;7392;52.078;11.650;2024-03-23T10:24:37;99916.53;;;5.81;100.00
14612;BME280;7392;52.078;11.650;2024-03-23T10:27:03;99913.00;;;5.84;100.00
14612;BME280;7392;52.078;11.650;2024-03-23T10:29:30;99901.59;;;5.85;100.00
14612;BME280;7392;52.078;11.650;2024-03-23T10:32:08;99896.34;;;5.88;100.00
14612;BME280;7392;52.078;11.650;2024-03-23T10:34:35;99902.50;;;5.93;100.00
14612;BME280;7392;52.078;11.650;2024-03-23T10:37:02;99899.03;;;5.99;100.00
14612;BME280;7392;52.078;11.650;2024-03-23T10:39:32;99914.00;;;6.06;100.00
14612;BME280;7392;52.078;11.650;2024-03-23T10:42:00;99918.44;;;6.12;100.00
14612;BME280;7392;52.078;11.650;2024-03-23T10:44:29;99928.97;;;6.21;100.00
14612;BME280;7392;52.078;11.650;2024-03-23T10:46:58;99919.34;;;6.31;100.00
14612;BME280;7392;52.078;11.650;2024-03-23T10:49:28;99916.69;;;6.37;100.00
14612;BME280;7392;52.078;11.650;2024-03-23T10:52:00;99919.34;;;6.40;100.00
14612;BME280;7392;52.078;11.650;2024-03-23T10:54:33;99926.38;;;6.47;100.00
14612;BME280;7392;52.078;11.650;2024-03-23T10:57:05;99929.94;;;6.57;100.00
14612;BME280;7392;52.078;11.650;2024-03-23T10:59:37;99923.78;;;6.60;100.00
14612;BME280;7392;52.078;11.650;2024-03-23T11:02:04;99936.09;;;6.54;100.00
14612;BME280;7392;52.078;11.650;2024-03-23T11:04:36;99948.34;;;6.37;100.00
14612;BME280;7392;52.078;11.650;2024-03-23T11:07:31;99940.41;;;6.17;100.00
14612;BME280;7392;52.078;11.650;2024-03-23T11:10:00;99952.63;;;6.01;100.00
14612;BME280;7392;52.078;11.650;2024-03-23T11:12:30;99951.69;;;5.90;100.00
14612;BME280;7392;52.078;11.650;2024-03-23T11:15:03;99959.56;;;5.84;100.00
14612;BME280;7392;52.078;11.650;2024-03-23T11:17:31;99969.19;;;5.77;100.00
14612;BME280;7392;52.078;11.650;2024-03-23T11:20:01;99935.81;;;5.73;100.00
14612;BME280;7392;52.078;11.650;2024-03-23T11:22:45;99938.44;;;5.73;100.00
14612;BME280;7392;52.078;11.650;2024-03-23T11:25:19;99937.56;;;5.72;100.00
14612;BME280;7392;52.078;11.650;2024-03-23T11:27:49;99932.28;;;5.75;100.00
14612;BME280;7392;52.078;11.650;2024-03-23T11:30:18;99938.47;;;5.84;100.00
14612;BME280;7392;52.078;11.650;2024-03-23T11:32:48;99937.66;;;5.95;100.00
14612;BME280;7392;52.078;11.650;2024-03-23T11:35:25;99928.97;;;6.10;100.00
14612;BME280;7392;52.078;11.650;2024-03-23T11:38:07;99935.16;;;6.28;100.00
14612;BME280;7392;52.078;11.650;2024-03-23T11:40:37;99935.19;;;6.43;100.00
14612;BME280;7392;52.078;11.650;2024-03-23T11:43:05;99934.34;;;6.57;100.00
14612;BME280;7392;52.078;11.650;2024-03-23T11:45:39;99933.47;;;6.78;100.00
14612;BME280;7392;52.078;11.650;2024-03-23T11:48:09;99926.44;;;6.90;100.00
14612;BME280;7392;52.078;11.650;2024-03-23T11:50:42;99933.47;;;7.11;100.00
14612;BME280;7392;52.078;11.650;2024-03-23T11:53:15;99924.66;;;7.19;100.00
14612;BME280;7392;52.078;11.650;2024-03-23T11:55:47;99925.53;;;7.27;100.00
14612;BME280;7392;52.078;11.650;2024-03-23T11:58:15;99918.47;;;7.30;100.00
14612;BME280;7392;52.078;11.650;2024-03-23T12:00:49;99922.00;;;7.28;100.00
14612;BME280;7392;52.078;11.650;2024-03-23T12:03:16;99913.19;;;7.29;100.00
14612;BME280;7392;52.078;11.650;2024-03-23T12:05:48;99914.09;;;7.31;100.00
14612;BME280;7392;52.078;11.650;2024-03-23T12:08:17;99940.50;;;7.31;100.00
14612;BME280;7392;52.078;11.650;2024-03-23T12:10:47;99902.66;;;7.23;100.00
14612;BME280;7392;52.078;11.650;2024-03-23T12:13:20;99907.06;;;7.18;100.00
14612;BME280;7392;52.078;11.650;2024-03-23T12:15:49;99895.63;;;7.11;100.00
14612;BME280;7392;52.078;11.650;2024-03-23T12:18:15;99900.03;;;7.09;100.00
14612;BME280;7392;52.078;11.650;2024-03-23T12:20:42;99884.19;;;7.07;100.00
14612;BME280;7392;52.078;11.650;2024-03-23T12:23:10;99893.84;;;7.07;100.00
14612;BME280;7392;52.078;11.650;2024-03-23T12:25:41;99891.22;;;7.05;100.00
14612;BME280;7392;52.078;11.650;2024-03-23T12:28:08;99892.13;;;7.06;100.00
14612;BME280;7392;52.078;11.650;2024-03-23T12:30:39;99898.25;;;7.03;100.00
14612;BME280;7392;52.078;11.650;2024-03-23T12:33:05;99908.84;;;6.97;100.00
14612;BME280;7392;52.078;11.650;2024-03-23T12:35:32;99883.31;;;6.81;100.00
14612;BME280;7392;52.078;11.650;2024-03-23T12:38:01;99883.34;;;6.68;100.00
14612;BME280;7392;52.078;11.650;2024-03-23T12:40:32;99886.84;;;6.60;100.00
14612;BME280;7392;52.078;11.650;2024-03-23T12:43:08;99878.91;;;6.41;100.00
14612;BME280;7392;52.078;11.650;2024-03-23T12:45:47;99878.03;;;6.31;100.00
14612;BME280;7392;52.078;11.650;2024-03-23T12:48:19;99879.75;;;6.23;100.00
14612;BME280;7392;52.078;11.650;2024-03-23T12:50:56;99873.59;;;6.20;100.00
14612;BME280;7392;52.078;11.650;2024-03-23T12:53:25;99878.03;;;6.24;100.00
14612;BME280;7392;52.078;11.650;2024-03-23T12:55:52;99877.16;;;6.45;100.00
14612;BME280;7392;52.078;11.650;2024-03-23T12:58:20;99878.94;;;6.78;100.00
14612;BME280;7392;52.078;11.650;2024-03-23T13:00:47;99885.06;;;7.05;100.00
14612;BME280;7392;52.078;11.650;2024-03-23T13:03:14;99880.66;;;7.11;100.00
14612;BME280;7392;52.078;11.650;2024-03-23T13:05:42;99884.16;;;7.17;100.00
14612;BME280;7392;52.078;11.650;2024-03-23T13:08:09;99886.81;;;7.21;100.00
14612;BME280;7392;52.078;11.650;2024-03-23T13:10:36;99881.53;;;7.23;100.00
14612;BME280;7392;52.078;11.650;2024-03-23T13:13:03;99877.97;;;7.22;100.00
14612;BME280;7392;52.078;11.650;2024-03-23T13:15:34;99884.16;;;7.20;100.00
14612;BME280;7392;52.078;11.650;2024-03-23T13:18:00;99874.47;;;7.19;100.00
14612;BME280;7392;52.078;11.650;2024-03-23T13:20:27;99878.88;;;7.10;100.00
14612;BME280;7392;52.078;11.650;2024-03-23T13:22:54;99910.59;;;7.06;100.00
14612;BME280;7392;52.078;11.650;2024-03-23T13:25:21;99907.06;;;6.99;100.00
14612;BME280;7392;52.078;11.650;2024-03-23T13:27:46;99901.78;;;6.93;100.00
14612;BME280;7392;52.078;11.650;2024-03-23T13:30:14;99898.28;;;6.94;100.00
14612;BME280;7392;52.078;11.650;2024-03-23T13:32:41;99902.66;;;6.95;100.00
14612;BME280;7392;52.078;11.650;2024-03-23T13:35:08;99911.50;;;6.97;100.00
14612;BME280;7392;52.078;11.650;2024-03-23T13:37:33;99919.41;;;6.99;100.00
14612;BME280;7392;52.078;11.650;2024-03-23T13:40:00;99929.06;;;6.98;100.00
14612;BME280;7392;52.078;11.650;2024-03-23T13:42:26;99940.53;;;6.97;100.00
14612;BME280;7392;52.078;11.650;2024-03-23T13:44:53;99947.56;;;6.93;100.00
14612;BME280;7392;52.078;11.650;2024-03-23T13:47:19;99964.25;;;6.85;100.00
14612;BME280;7392;52.078;11.650;2024-03-23T13:49:47;99980.06;;;6.69;100.00
14612;BME280;7392;52.078;11.650;2024-03-23T13:52:14;99986.22;;;6.51;100.00
14612;BME280;7392;52.078;11.650;2024-03-23T13:54:41;99987.91;;;6.29;100.00